SWA1636 KHOU-KDAL
Flight info
| Callsign | SWA1636 |
|---|---|
| Flight time | N/A |
| Altitude | 30000 |
| Route | WYLSN8 MAJKK REDDN4 |
| Aircraft | B737/M-SDE2E3FGHIRWXY/LB1 |
Departure
| Time | 2026-04-30 15:09 |
|---|---|
| Airport | William P. Hobby Airport (KHOU) |
Arrival
| Time | N/A |
|---|---|
| Airport | Dallas Love Field (KDAL) |
| Time | Latitude | Longitude | Altitude | Speed | Heading |
|---|---|---|---|---|---|
| 2026-04-30 14:33 | 29.65276 | -95.27881 | 51 ft | 0 kts | 156° |
| 2026-04-30 15:02 | 29.65277 | -95.27882 | 51 ft | 1 kts | 156° |
| 2026-04-30 15:03 | 29.65333 | -95.27883 | 50 ft | 3 kts | 243° |
| 2026-04-30 15:03 | 29.65338 | -95.27869 | 51 ft | 0 kts | 249° |
| 2026-04-30 15:06 | 29.65317 | -95.27920 | 51 ft | 10 kts | 240° |
| 2026-04-30 15:07 | 29.65326 | -95.28091 | 51 ft | 15 kts | 306° |
| 2026-04-30 15:07 | 29.65289 | -95.28318 | 51 ft | 15 kts | 245° |
| 2026-04-30 15:08 | 29.65221 | -95.28519 | 51 ft | 13 kts | 263° |
| 2026-04-30 15:08 | 29.64983 | -95.28420 | 51 ft | 40 kts | 134° |
| 2026-04-30 15:09 | 29.63938 | -95.27188 | 86 ft | 162 kts | 134° |
| 2026-04-30 15:09 | 29.62968 | -95.24941 | 1246 ft | 176 kts | 73° |
| 2026-04-30 15:10 | 29.65068 | -95.23538 | 2050 ft | 212 kts | 354° |
| 2026-04-30 15:11 | 29.71556 | -95.24447 | 4016 ft | 271 kts | 352° |
| 2026-04-30 15:11 | 29.75356 | -95.25013 | 5761 ft | 276 kts | 352° |
| 2026-04-30 15:12 | 29.81182 | -95.25511 | 8904 ft | 276 kts | 351° |
| 2026-04-30 15:13 | 29.85022 | -95.25815 | 10656 ft | 288 kts | 350° |
| 2026-04-30 15:14 | 29.94436 | -95.26618 | 11961 ft | 371 kts | 351° |
| 2026-04-30 15:14 | 30.02326 | -95.27276 | 14033 ft | 387 kts | 351° |
| 2026-04-30 15:16 | 30.15960 | -95.28437 | 17446 ft | 401 kts | 349° |
| 2026-04-30 15:17 | 30.27283 | -95.29409 | 19714 ft | 413 kts | 348° |
| 2026-04-30 15:18 | 30.41838 | -95.30660 | 22265 ft | 426 kts | 348° |
| 2026-04-30 15:19 | 30.50720 | -95.31718 | 23579 ft | 427 kts | 342° |